createdAt,value
2022-12-20T00:01:14.382Z,5.00
2022-12-20T00:04:05.504Z,4.90
2022-12-20T00:06:54.515Z,4.90
2022-12-20T00:09:43.533Z,4.90
2022-12-20T00:12:31.684Z,4.90
2022-12-20T00:15:18.912Z,4.80
2022-12-20T00:18:07.849Z,4.70
2022-12-20T00:21:03.351Z,4.60
2022-12-20T00:23:52.220Z,4.60
2022-12-20T00:26:40.223Z,4.50
2022-12-20T00:29:27.688Z,4.60
2022-12-20T00:32:15.147Z,4.70
2022-12-20T00:35:03.559Z,4.60
2022-12-20T00:37:52.521Z,4.50
2022-12-20T00:40:40.518Z,4.60
2022-12-20T00:43:28.293Z,4.60
2022-12-20T00:46:16.470Z,4.70
2022-12-20T00:49:03.994Z,4.70
2022-12-20T00:51:52.595Z,4.60
2022-12-20T00:54:39.914Z,4.60
2022-12-20T00:57:27.326Z,4.50
2022-12-20T01:00:15.337Z,4.50
2022-12-20T01:03:03.139Z,4.60
2022-12-20T01:05:58.186Z,4.60
2022-12-20T01:08:45.636Z,4.70
2022-12-20T01:11:35.710Z,4.60
2022-12-20T01:14:23.575Z,4.60
2022-12-20T01:17:11.193Z,4.60
2022-12-20T01:19:58.460Z,4.60
2022-12-20T01:22:47.803Z,4.70
2022-12-20T01:25:34.995Z,4.70
2022-12-20T01:28:24.090Z,4.50
2022-12-20T01:31:13.761Z,4.20
2022-12-20T01:34:01.657Z,4.10
2022-12-20T01:36:49.506Z,4.10
2022-12-20T01:39:36.987Z,4.10
2022-12-20T01:42:24.577Z,4.20
2022-12-20T01:45:14.935Z,4.20
2022-12-20T01:48:02.872Z,4.30
2022-12-20T01:50:53.970Z,4.30
2022-12-20T01:53:42.889Z,4.30
2022-12-20T01:56:30.166Z,4.40
2022-12-20T01:59:18.082Z,4.40
2022-12-20T02:02:08.709Z,4.30
2022-12-20T02:04:56.354Z,4.30
2022-12-20T02:07:46.629Z,4.20
2022-12-20T02:10:48.858Z,4.10
2022-12-20T02:13:44.720Z,4.10
2022-12-20T02:16:35.297Z,4.00
2022-12-20T02:19:49.709Z,4.10
2022-12-20T02:22:58.599Z,4.00
2022-12-20T02:26:00.906Z,4.10
2022-12-20T02:29:09.443Z,4.20
2022-12-20T02:32:02.840Z,4.10
2022-12-20T02:34:50.675Z,4.20
2022-12-20T02:37:39.735Z,4.30
2022-12-20T02:40:30.439Z,4.30
2022-12-20T02:43:36.142Z,4.40
2022-12-20T02:46:26.712Z,4.40
2022-12-20T02:49:17.126Z,4.40
2022-12-20T02:52:06.372Z,4.40
2022-12-20T02:54:55.998Z,4.40
2022-12-20T02:58:01.336Z,4.40
2022-12-20T03:00:55.279Z,4.40
2022-12-20T03:03:43.213Z,4.30
2022-12-20T03:06:30.723Z,4.30
2022-12-20T03:09:18.099Z,4.30
2022-12-20T03:12:05.936Z,4.40
2022-12-20T03:14:56.053Z,4.40
2022-12-20T03:17:43.812Z,4.40
2022-12-20T03:20:31.242Z,4.40
2022-12-20T03:23:18.493Z,4.40
2022-12-20T03:26:05.911Z,4.40
2022-12-20T03:28:53.705Z,4.40
2022-12-20T03:31:41.292Z,4.40
2022-12-20T03:34:28.686Z,4.50
2022-12-20T03:37:16.617Z,4.50
2022-12-20T03:40:03.960Z,4.50
2022-12-20T03:42:52.391Z,4.60
2022-12-20T03:45:39.580Z,4.60
2022-12-20T03:48:27.341Z,4.60
2022-12-20T03:51:14.897Z,4.70
2022-12-20T03:54:02.475Z,4.70
2022-12-20T03:56:50.123Z,4.70
2022-12-20T03:59:37.893Z,4.70
2022-12-20T04:02:25.489Z,4.60
2022-12-20T04:05:13.115Z,4.60
2022-12-20T04:08:00.512Z,4.50
2022-12-20T04:11:07.506Z,4.40
2022-12-20T04:13:55.496Z,4.40
2022-12-20T04:16:43.113Z,4.40
2022-12-20T04:19:30.126Z,4.50
2022-12-20T04:22:18.878Z,4.60
2022-12-20T04:25:06.221Z,4.70
2022-12-20T04:27:56.334Z,4.80
2022-12-20T04:30:43.717Z,4.80
2022-12-20T04:33:31.399Z,4.80
2022-12-20T04:36:18.787Z,4.80
2022-12-20T04:39:06.311Z,4.90
2022-12-20T04:41:54.353Z,4.90
2022-12-20T04:44:41.505Z,4.90
2022-12-20T04:47:28.996Z,4.90
2022-12-20T04:50:16.597Z,4.80
2022-12-20T04:53:22.919Z,4.70
2022-12-20T04:56:11.154Z,4.60
2022-12-20T04:58:59.959Z,4.60
2022-12-20T05:01:47.424Z,4.60
2022-12-20T05:04:37.545Z,4.60
2022-12-20T05:07:27.649Z,4.60
2022-12-20T05:10:14.945Z,4.50
2022-12-20T05:13:08.871Z,4.60
2022-12-20T05:15:56.166Z,4.70
2022-12-20T05:18:48.960Z,4.70
2022-12-20T05:21:52.440Z,4.70
2022-12-20T05:24:57.807Z,4.70
2022-12-20T05:27:45.375Z,4.80
2022-12-20T05:30:33.099Z,4.60
2022-12-20T05:33:20.371Z,4.40
2022-12-20T05:36:07.921Z,4.50
2022-12-20T05:39:01.773Z,4.60
2022-12-20T05:41:44.384Z,4.60
2022-12-20T05:44:31.827Z,4.70
2022-12-20T05:47:19.061Z,4.80
2022-12-20T05:50:09.251Z,4.90
2022-12-20T05:52:56.338Z,4.90
2022-12-20T05:55:54.800Z,4.90
2022-12-20T05:58:42.120Z,4.90
2022-12-20T06:01:29.856Z,4.90
2022-12-20T06:04:17.361Z,5.00
2022-12-20T06:07:05.798Z,5.00
2022-12-20T06:09:56.539Z,4.90
2022-12-20T06:12:44.200Z,4.90
2022-12-20T06:15:32.370Z,4.90
2022-12-20T06:18:19.850Z,4.70
2022-12-20T06:21:07.424Z,4.50
2022-12-20T06:23:55.064Z,4.50
2022-12-20T06:26:42.283Z,4.60
2022-12-20T06:29:30.117Z,4.70
2022-12-20T06:32:18.867Z,4.80
2022-12-20T06:35:06.503Z,4.80
2022-12-20T06:37:56.206Z,4.80
2022-12-20T06:40:43.700Z,4.90
2022-12-20T06:43:30.975Z,4.80
2022-12-20T06:46:19.634Z,4.70
2022-12-20T06:49:06.894Z,4.60
2022-12-20T06:51:57.430Z,4.40
2022-12-20T06:54:44.707Z,4.50
2022-12-20T06:57:33.111Z,4.60
2022-12-20T07:00:23.545Z,4.70
2022-12-20T07:03:10.750Z,4.70
2022-12-20T07:05:58.416Z,4.70
2022-12-20T07:08:46.716Z,4.80
2022-12-20T07:11:33.970Z,4.90
2022-12-20T07:14:23.159Z,4.70
2022-12-20T07:17:10.844Z,4.50
2022-12-20T07:19:59.095Z,4.60
2022-12-20T07:22:49.020Z,4.70
2022-12-20T07:25:36.534Z,4.80
2022-12-20T07:28:28.248Z,4.90
2022-12-20T07:31:15.789Z,5.00
2022-12-20T07:34:03.127Z,5.10
2022-12-20T07:36:50.466Z,5.20
2022-12-20T07:39:37.997Z,5.20
2022-12-20T07:42:29.036Z,5.10
2022-12-20T07:45:15.500Z,5.00
2022-12-20T07:48:09.350Z,5.10
2022-12-20T07:50:58.060Z,5.20
2022-12-20T07:53:48.563Z,5.30
2022-12-20T07:56:41.534Z,5.30
2022-12-20T07:59:32.135Z,5.40
2022-12-20T08:02:25.387Z,5.40
2022-12-20T08:05:13.672Z,5.40
2022-12-20T08:08:03.900Z,5.40
2022-12-20T08:10:55.170Z,5.40
2022-12-20T08:13:46.524Z,5.20
2022-12-20T08:16:31.798Z,5.10
2022-12-20T08:19:19.277Z,5.10
2022-12-20T08:22:07.013Z,5.00
2022-12-20T08:24:57.358Z,5.00
2022-12-20T08:27:44.865Z,5.00
2022-12-20T08:30:35.257Z,5.20
2022-12-20T08:33:24.238Z,5.20
2022-12-20T08:36:14.635Z,5.20
2022-12-20T08:39:06.851Z,5.30
2022-12-20T08:41:55.791Z,5.30
2022-12-20T08:44:45.020Z,5.40
2022-12-20T08:47:32.305Z,5.50
2022-12-20T08:50:20.011Z,5.70
2022-12-20T08:53:07.887Z,5.80
2022-12-20T08:55:57.152Z,5.80
2022-12-20T08:58:45.431Z,5.90
2022-12-20T09:01:34.133Z,6.00
2022-12-20T09:04:25.591Z,6.10
2022-12-20T09:07:13.549Z,6.30
2022-12-20T09:10:00.952Z,6.30
2022-12-20T09:12:48.192Z,6.40
2022-12-20T09:15:36.781Z,6.40
2022-12-20T09:18:25.524Z,6.60
2022-12-20T09:21:13.029Z,6.70
2022-12-20T09:24:00.322Z,6.70
2022-12-20T09:26:50.314Z,6.80
2022-12-20T09:29:36.679Z,6.90
2022-12-20T09:32:25.362Z,6.80
2022-12-20T09:35:16.551Z,6.50
2022-12-20T09:38:01.525Z,6.50
2022-12-20T09:40:53.854Z,6.60
2022-12-20T09:43:41.771Z,6.70
2022-12-20T09:46:29.544Z,6.80
2022-12-20T09:49:20.210Z,6.80
2022-12-20T09:52:23.949Z,6.70
2022-12-20T09:55:14.203Z,6.60
2022-12-20T09:58:19.663Z,6.70
2022-12-20T10:01:24.652Z,6.60
2022-12-20T10:04:20.247Z,6.40
2022-12-20T10:07:38.303Z,6.40
2022-12-20T10:10:38.043Z,6.40
2022-12-20T10:13:37.562Z,6.50
2022-12-20T10:16:27.793Z,6.50
2022-12-20T10:19:22.410Z,6.60
2022-12-20T10:22:27.912Z,6.60
2022-12-20T10:25:22.958Z,6.70
2022-12-20T10:28:16.676Z,6.80
2022-12-20T10:31:16.047Z,6.90
2022-12-20T10:34:03.668Z,6.90
2022-12-20T10:36:54.197Z,7.00
2022-12-20T10:39:44.034Z,6.90
2022-12-20T10:42:38.195Z,6.90
2022-12-20T10:45:40.229Z,7.00
2022-12-20T10:48:30.748Z,6.90
2022-12-20T10:51:23.446Z,7.00
2022-12-20T10:54:16.758Z,7.00
2022-12-20T10:57:24.198Z,7.10
2022-12-20T11:00:14.773Z,7.20
2022-12-20T11:03:08.357Z,7.30
2022-12-20T11:05:59.556Z,7.30
2022-12-20T11:08:53.969Z,7.40
2022-12-20T11:11:37.153Z,7.40
2022-12-20T11:14:25.434Z,7.50
2022-12-20T11:17:24.114Z,7.50
2022-12-20T11:20:32.721Z,7.60
2022-12-20T11:23:49.865Z,7.70
2022-12-20T11:27:15.144Z,7.80
2022-12-20T11:30:06.889Z,7.80
2022-12-20T11:33:12.476Z,7.80
2022-12-20T11:36:06.128Z,7.90
2022-12-20T11:39:20.047Z,8.00
2022-12-20T11:42:16.717Z,8.10
2022-12-20T11:45:25.443Z,8.30
2022-12-20T11:48:35.744Z,8.40
2022-12-20T11:51:31.822Z,8.50
2022-12-20T11:54:30.604Z,8.60
2022-12-20T11:57:22.125Z,8.60
2022-12-20T12:00:17.975Z,8.70
2022-12-20T12:03:17.749Z,8.70
2022-12-20T12:06:11.146Z,8.70
2022-12-20T12:09:13.867Z,8.80
2022-12-20T12:12:18.737Z,8.80
2022-12-20T12:15:22.247Z,8.80
2022-12-20T12:18:27.691Z,8.70
2022-12-20T12:21:26.957Z,8.60
2022-12-20T12:24:35.338Z,8.60
2022-12-20T12:27:28.942Z,8.60
2022-12-20T12:30:18.297Z,8.70
2022-12-20T12:33:08.733Z,8.70
2022-12-20T12:36:24.754Z,8.70
2022-12-20T12:39:23.259Z,8.70
2022-12-20T12:42:25.477Z,8.70
2022-12-20T12:45:31.614Z,8.80
2022-12-20T12:48:37.101Z,8.70
2022-12-20T12:51:36.463Z,8.70
2022-12-20T12:54:32.465Z,8.70
2022-12-20T12:57:20.684Z,8.80
2022-12-20T13:00:11.053Z,8.70
2022-12-20T13:02:58.306Z,8.60
2022-12-20T13:05:45.929Z,8.70
2022-12-20T13:08:36.587Z,8.70
2022-12-20T13:11:46.929Z,8.80
2022-12-20T13:14:37.676Z,8.80
2022-12-20T13:17:28.470Z,8.70
2022-12-20T13:20:33.634Z,8.60
2022-12-20T13:23:23.613Z,8.70
2022-12-20T13:26:46.193Z,8.70
2022-12-20T13:29:40.312Z,8.70
2022-12-20T13:32:49.994Z,8.70
2022-12-20T13:35:46.563Z,8.70
2022-12-20T13:38:45.911Z,8.70
2022-12-20T13:41:48.435Z,8.80
2022-12-20T13:44:38.743Z,8.80
2022-12-20T13:47:41.356Z,8.70
2022-12-20T13:50:36.363Z,8.60
2022-12-20T13:53:28.702Z,8.70
2022-12-20T13:56:32.193Z,8.80
2022-12-20T13:59:26.844Z,8.80
2022-12-20T14:02:24.927Z,8.70
2022-12-20T14:05:26.565Z,8.60
2022-12-20T14:08:23.710Z,8.50
2022-12-20T14:11:18.451Z,8.60
2022-12-20T14:14:07.577Z,8.70
2022-12-20T14:16:55.121Z,8.70
2022-12-20T14:19:42.406Z,8.70
2022-12-20T14:22:30.712Z,8.70
2022-12-20T14:25:22.529Z,8.80
2022-12-20T14:28:26.799Z,8.60
2022-12-20T14:31:24.338Z,8.60
2022-12-20T14:34:14.552Z,8.50
2022-12-20T14:37:33.911Z,8.50
2022-12-20T14:40:25.052Z,8.40
2022-12-20T14:43:16.581Z,8.40
2022-12-20T14:46:22.723Z,8.50
2022-12-20T14:49:37.336Z,8.40
2022-12-20T14:52:36.732Z,8.10
2022-12-20T14:55:33.880Z,7.90
2022-12-20T14:58:35.234Z,7.90
2022-12-20T15:01:31.189Z,7.90
2022-12-20T15:04:35.687Z,7.70
2022-12-20T15:07:33.012Z,7.70
2022-12-20T15:10:20.114Z,7.70
2022-12-20T15:13:16.592Z,7.70
2022-12-20T15:16:07.323Z,7.70
2022-12-20T15:18:57.820Z,7.70
2022-12-20T15:21:46.559Z,7.60
2022-12-20T15:24:33.723Z,7.50
2022-12-20T15:27:23.331Z,7.30
2022-12-20T15:30:14.553Z,7.10
2022-12-20T15:33:01.819Z,7.10
2022-12-20T15:35:49.469Z,7.00
2022-12-20T15:41:32.081Z,7.10
2022-12-20T15:44:24.044Z,6.80
2022-12-20T15:47:16.474Z,6.70
2022-12-20T15:50:04.329Z,6.70
2022-12-20T15:52:52.314Z,6.60
2022-12-20T15:55:40.264Z,6.70
2022-12-20T15:58:28.456Z,6.80
2022-12-20T16:01:19.191Z,6.90
2022-12-20T16:04:07.946Z,6.90
2022-12-20T16:06:55.346Z,6.70
2022-12-20T16:09:42.582Z,6.80
2022-12-20T16:12:33.220Z,6.80
2022-12-20T16:15:25.991Z,6.80
2022-12-20T16:18:13.134Z,6.80
2022-12-20T16:21:00.428Z,6.80
2022-12-20T16:23:50.734Z,6.80
2022-12-20T16:26:38.068Z,6.70
2022-12-20T16:29:25.462Z,6.60
2022-12-20T16:32:17.179Z,6.60
2022-12-20T16:35:05.254Z,6.70
2022-12-20T16:37:55.660Z,6.70
2022-12-20T16:40:43.200Z,6.70
2022-12-20T16:43:35.296Z,6.80
2022-12-20T16:46:24.774Z,6.80
2022-12-20T16:49:19.755Z,6.80
2022-12-20T16:52:02.094Z,6.70
2022-12-20T16:54:49.814Z,6.60
2022-12-20T16:57:37.680Z,6.50
2022-12-20T17:00:30.283Z,6.60
2022-12-20T17:03:17.799Z,6.60
2022-12-20T17:06:05.856Z,6.50
2022-12-20T17:08:54.717Z,6.40
2022-12-20T17:11:42.571Z,6.40
2022-12-20T17:14:30.001Z,6.40
2022-12-20T17:17:18.054Z,6.40
2022-12-20T17:20:05.887Z,6.50
2022-12-20T17:29:03.040Z,6.30
2022-12-20T17:31:53.492Z,6.30
2022-12-20T17:34:40.884Z,6.40
2022-12-20T17:37:28.164Z,6.50
2022-12-20T17:40:16.542Z,6.50
2022-12-20T17:43:04.040Z,6.60
2022-12-20T17:45:57.500Z,6.60
2022-12-20T17:48:45.831Z,6.70
2022-12-20T17:51:33.114Z,6.60
2022-12-20T17:54:23.728Z,6.60
2022-12-20T17:57:16.803Z,6.60
2022-12-20T18:00:05.631Z,6.50
2022-12-20T18:02:56.511Z,6.50
2022-12-20T18:05:43.837Z,6.50
2022-12-20T18:08:31.093Z,6.40
2022-12-20T18:11:19.073Z,6.40
2022-12-20T18:14:06.356Z,6.50
2022-12-20T18:16:55.934Z,6.60
2022-12-20T18:19:43.949Z,6.70
2022-12-20T18:22:34.008Z,6.80
2022-12-20T18:25:22.796Z,6.80
2022-12-20T18:28:10.156Z,6.90
2022-12-20T18:30:57.845Z,7.00
2022-12-20T18:33:51.115Z,7.00
2022-12-20T18:36:38.067Z,7.10
2022-12-20T18:39:25.933Z,7.00
2022-12-20T18:42:13.131Z,7.00
2022-12-20T18:45:00.530Z,6.90
2022-12-20T18:47:47.746Z,6.80
2022-12-20T18:50:37.158Z,6.80
2022-12-20T18:53:24.593Z,6.80
2022-12-20T18:56:17.237Z,6.70
2022-12-20T18:59:11.523Z,6.80
2022-12-20T19:01:55.649Z,6.80
2022-12-20T19:04:43.181Z,6.80
2022-12-20T19:07:30.736Z,6.80
2022-12-20T19:10:18.333Z,6.80
2022-12-20T19:13:06.269Z,6.70
2022-12-20T19:16:02.694Z,6.70
2022-12-20T19:18:50.271Z,6.70
2022-12-20T19:21:40.605Z,6.70
2022-12-20T19:24:28.569Z,6.70
2022-12-20T19:27:15.988Z,6.80
2022-12-20T19:30:05.612Z,6.80
2022-12-20T19:32:58.414Z,6.90
2022-12-20T19:35:55.417Z,6.90
2022-12-20T19:38:34.500Z,6.90
2022-12-20T19:41:23.947Z,6.80
2022-12-20T19:44:11.832Z,6.90
2022-12-20T19:47:05.651Z,6.90
2022-12-20T19:49:53.983Z,6.90
2022-12-20T19:52:42.010Z,6.90
2022-12-20T19:55:29.329Z,6.90
2022-12-20T19:58:17.722Z,6.90
2022-12-20T20:01:07.059Z,6.80
2022-12-20T20:03:56.791Z,6.80
2022-12-20T20:06:43.988Z,6.90
2022-12-20T20:09:31.753Z,6.90
2022-12-20T20:12:18.963Z,7.00
2022-12-20T20:15:06.900Z,7.00
2022-12-20T20:17:58.764Z,6.90
2022-12-20T20:20:46.236Z,6.90
2022-12-20T20:23:34.174Z,7.00
2022-12-20T20:26:24.911Z,7.10
2022-12-20T20:29:12.400Z,7.10
2022-12-20T20:31:59.549Z,7.10
2022-12-20T20:34:47.227Z,7.20
2022-12-20T20:37:34.883Z,7.10
2022-12-20T20:40:24.165Z,7.10
2022-12-20T20:43:11.904Z,7.20
2022-12-20T20:45:59.538Z,7.20
2022-12-20T20:48:46.930Z,7.20
2022-12-20T20:51:34.660Z,7.20
2022-12-20T20:54:23.826Z,7.20
2022-12-20T20:57:10.953Z,7.20
2022-12-20T20:59:58.826Z,7.30
2022-12-20T21:02:46.396Z,7.30
2022-12-20T21:08:26.349Z,7.20
2022-12-20T21:11:14.188Z,7.10
2022-12-20T21:14:01.334Z,7.10
2022-12-20T21:16:48.989Z,7.00
2022-12-20T21:19:36.535Z,7.00
2022-12-20T21:22:27.093Z,7.00
2022-12-20T21:25:16.069Z,7.00
2022-12-20T21:28:06.336Z,7.10
2022-12-20T21:31:01.455Z,7.20
2022-12-20T21:33:48.844Z,7.10
2022-12-20T21:36:36.288Z,7.20
2022-12-20T21:39:24.397Z,7.20
2022-12-20T21:42:11.651Z,7.30
2022-12-20T21:44:59.370Z,7.20
2022-12-20T21:47:46.905Z,7.20
2022-12-20T21:50:34.076Z,7.00
2022-12-20T21:53:22.779Z,7.10
2022-12-20T21:56:10.464Z,7.00
2022-12-20T21:58:57.840Z,7.00
2022-12-20T22:01:47.169Z,7.00
2022-12-20T22:04:35.693Z,7.10
2022-12-20T22:07:25.936Z,7.10
2022-12-20T22:10:13.317Z,7.20
2022-12-20T22:13:00.785Z,7.20
2022-12-20T22:15:48.446Z,7.30
2022-12-20T22:18:37.095Z,7.40
2022-12-20T22:21:29.684Z,7.40
2022-12-20T22:24:18.426Z,7.40
2022-12-20T22:27:11.188Z,7.40
2022-12-20T22:29:54.694Z,7.40
2022-12-20T22:32:42.164Z,7.50
2022-12-20T22:35:29.943Z,7.50
2022-12-20T22:38:17.362Z,7.40
2022-12-20T22:41:15.922Z,7.40
2022-12-20T22:44:04.204Z,7.30
2022-12-20T22:46:54.166Z,7.20
2022-12-20T22:49:41.948Z,7.20
2022-12-20T22:52:29.476Z,7.40
2022-12-20T22:55:18.154Z,7.40
2022-12-20T22:58:05.575Z,7.40
2022-12-20T23:00:55.970Z,7.50
2022-12-20T23:03:44.475Z,7.60
2022-12-20T23:06:31.747Z,7.50
2022-12-20T23:09:19.150Z,7.50
2022-12-20T23:12:24.831Z,7.50
2022-12-20T23:15:31.313Z,7.60
2022-12-20T23:18:18.775Z,7.50
2022-12-20T23:21:24.267Z,7.50
2022-12-20T23:24:13.058Z,7.50
2022-12-20T23:27:00.572Z,7.50
2022-12-20T23:29:49.751Z,7.60
2022-12-20T23:32:37.366Z,7.60
2022-12-20T23:35:25.704Z,7.50
2022-12-20T23:38:13.068Z,7.20
2022-12-20T23:41:00.330Z,7.00
2022-12-20T23:43:47.950Z,6.90
2022-12-20T23:46:35.657Z,7.00
2022-12-20T23:49:24.630Z,7.20
2022-12-20T23:52:12.828Z,7.20
2022-12-20T23:55:00.263Z,7.50
2022-12-20T23:57:47.744Z,7.60
